sensor_id;sensor_type;location;lat;lon;timestamp;pressure;altitude;pressure_sealevel;temperature;humidity
54854;BME280;40747;49.480;8.658;2023-04-25T00:00:28;99737.59;;;10.21;99.70
54854;BME280;40747;49.480;8.658;2023-04-25T00:02:53;99740.22;;;10.21;100.00
54854;BME280;40747;49.480;8.658;2023-04-25T00:05:20;99744.16;;;10.33;100.00
54854;BME280;40747;49.480;8.658;2023-04-25T00:07:48;99733.31;;;10.42;100.00
54854;BME280;40747;49.480;8.658;2023-04-25T00:10:13;99727.84;;;10.47;98.71
54854;BME280;40747;49.480;8.658;2023-04-25T00:12:39;99728.88;;;10.19;93.90
54854;BME280;40747;49.480;8.658;2023-04-25T00:15:06;99728.31;;;10.35;95.43
54854;BME280;40747;49.480;8.658;2023-04-25T00:17:31;99727.84;;;10.47;97.27
54854;BME280;40747;49.480;8.658;2023-04-25T00:19:57;99731.22;;;10.51;95.25
54854;BME280;40747;49.480;8.658;2023-04-25T00:22:23;99730.25;;;10.53;95.78
54854;BME280;40747;49.480;8.658;2023-04-25T00:24:49;99734.47;;;10.57;96.61
54854;BME280;40747;49.480;8.658;2023-04-25T00:27:14;99717.81;;;10.57;96.30
54854;BME280;40747;49.480;8.658;2023-04-25T00:29:39;99723.75;;;10.62;96.12
54854;BME280;40747;49.480;8.658;2023-04-25T00:32:05;99720.13;;;10.64;95.58
54854;BME280;40747;49.480;8.658;2023-04-25T00:34:30;99729.75;;;10.65;95.92
54854;BME280;40747;49.480;8.658;2023-04-25T00:36:55;99715.84;;;10.62;95.00
54854;BME280;40747;49.480;8.658;2023-04-25T00:39:22;99721.91;;;10.64;94.53
54854;BME280;40747;49.480;8.658;2023-04-25T00:41:47;99720.00;;;10.68;95.28
54854;BME280;40747;49.480;8.658;2023-04-25T00:44:14;99698.31;;;10.61;95.92
54854;BME280;40747;49.480;8.658;2023-04-25T00:46:42;99677.94;;;10.44;95.46
54854;BME280;40747;49.480;8.658;2023-04-25T00:49:07;99713.81;;;10.69;95.12
54854;BME280;40747;49.480;8.658;2023-04-25T00:51:32;99720.88;;;10.68;95.62
54854;BME280;40747;49.480;8.658;2023-04-25T00:53:58;99712.97;;;10.68;96.26
54854;BME280;40747;49.480;8.658;2023-04-25T00:56:24;99705.06;;;10.68;95.68
54854;BME280;40747;49.480;8.658;2023-04-25T00:58:53;99708.63;;;10.67;95.77
54854;BME280;40747;49.480;8.658;2023-04-25T01:01:19;99703.50;;;10.64;95.34
54854;BME280;40747;49.480;8.658;2023-04-25T01:03:46;99691.34;;;10.60;95.63
54854;BME280;40747;49.480;8.658;2023-04-25T01:06:12;99695.50;;;10.65;95.90
54854;BME280;40747;49.480;8.658;2023-04-25T01:08:38;99689.19;;;10.70;96.47
54854;BME280;40747;49.480;8.658;2023-04-25T01:11:05;99690.91;;;10.71;96.91
54854;BME280;40747;49.480;8.658;2023-04-25T01:13:31;99689.69;;;10.57;96.54
54854;BME280;40747;49.480;8.658;2023-04-25T01:15:58;99693.13;;;10.59;95.87
54854;BME280;40747;49.480;8.658;2023-04-25T01:18:23;99689.69;;;10.57;96.88
54854;BME280;40747;49.480;8.658;2023-04-25T01:20:51;99684.72;;;10.49;96.75
54854;BME280;40747;49.480;8.658;2023-04-25T01:23:18;99694.19;;;10.55;96.24
54854;BME280;40747;49.480;8.658;2023-04-25T01:25:44;99685.41;;;10.55;96.84
54854;BME280;40747;49.480;8.658;2023-04-25T01:28:10;99685.13;;;10.16;96.83
54854;BME280;40747;49.480;8.658;2023-04-25T01:30:35;99693.91;;;9.93;97.65
54854;BME280;40747;49.480;8.658;2023-04-25T01:33:01;99688.31;;;10.03;98.51
54854;BME280;40747;49.480;8.658;2023-04-25T01:35:29;99686.84;;;10.17;98.15
54854;BME280;40747;49.480;8.658;2023-04-25T01:37:54;99687.28;;;10.29;99.11
54854;BME280;40747;49.480;8.658;2023-04-25T01:40:21;99685.25;;;10.37;98.60
54854;BME280;40747;49.480;8.658;2023-04-25T01:42:46;99685.94;;;10.42;98.91
54854;BME280;40747;49.480;8.658;2023-04-25T01:45:12;99687.50;;;10.46;98.43
54854;BME280;40747;49.480;8.658;2023-04-25T01:47:38;99685.03;;;10.42;97.74
54854;BME280;40747;49.480;8.658;2023-04-25T01:50:09;99688.56;;;10.42;97.18
54854;BME280;40747;49.480;8.658;2023-04-25T01:52:34;99684.94;;;10.45;98.96
54854;BME280;40747;49.480;8.658;2023-04-25T01:55:01;99691.72;;;10.51;98.59
54854;BME280;40747;49.480;8.658;2023-04-25T01:57:27;99683.91;;;10.49;98.39
54854;BME280;40747;49.480;8.658;2023-04-25T01:59:58;99680.22;;;10.53;98.65
54854;BME280;40747;49.480;8.658;2023-04-25T02:02:24;99690.75;;;10.53;99.28
54854;BME280;40747;49.480;8.658;2023-04-25T02:04:50;99697.16;;;10.46;100.00
54854;BME280;40747;49.480;8.658;2023-04-25T02:07:15;99695.47;;;10.21;100.00
54854;BME280;40747;49.480;8.658;2023-04-25T02:09:40;99692.59;;;10.05;100.00
54854;BME280;40747;49.480;8.658;2023-04-25T02:12:08;99699.91;;;10.21;100.00
54854;BME280;40747;49.480;8.658;2023-04-25T02:14:33;99693.66;;;10.23;100.00
54854;BME280;40747;49.480;8.658;2023-04-25T02:16:59;99704.06;;;10.26;100.00
54854;BME280;40747;49.480;8.658;2023-04-25T02:19:25;99702.22;;;10.28;100.00
54854;BME280;40747;49.480;8.658;2023-04-25T02:21:50;99711.09;;;10.26;100.00
54854;BME280;40747;49.480;8.658;2023-04-25T02:24:15;99694.66;;;10.19;100.00
54854;BME280;40747;49.480;8.658;2023-04-25T02:26:41;99698.72;;;10.28;100.00
54854;BME280;40747;49.480;8.658;2023-04-25T02:29:06;99701.31;;;10.29;100.00
54854;BME280;40747;49.480;8.658;2023-04-25T02:31:32;99690.97;;;10.25;100.00
54854;BME280;40747;49.480;8.658;2023-04-25T02:33:57;99693.97;;;10.15;100.00
54854;BME280;40747;49.480;8.658;2023-04-25T02:36:22;99694.19;;;10.09;100.00
54854;BME280;40747;49.480;8.658;2023-04-25T02:38:49;99695.88;;;9.88;100.00
54854;BME280;40747;49.480;8.658;2023-04-25T02:41:14;99700.72;;;9.75;100.00
54854;BME280;40747;49.480;8.658;2023-04-25T02:43:40;99696.03;;;9.60;100.00
54854;BME280;40747;49.480;8.658;2023-04-25T02:46:05;99693.00;;;9.47;100.00
54854;BME280;40747;49.480;8.658;2023-04-25T02:48:30;99679.97;;;9.44;100.00
54854;BME280;40747;49.480;8.658;2023-04-25T02:50:56;99684.56;;;9.37;100.00
54854;BME280;40747;49.480;8.658;2023-04-25T02:53:21;99688.66;;;9.46;100.00
54854;BME280;40747;49.480;8.658;2023-04-25T02:55:46;99678.53;;;9.59;100.00
54854;BME280;40747;49.480;8.658;2023-04-25T02:58:12;99688.09;;;9.61;100.00
54854;BME280;40747;49.480;8.658;2023-04-25T03:00:37;99685.22;;;9.67;100.00
54854;BME280;40747;49.480;8.658;2023-04-25T03:03:02;99681.91;;;9.62;100.00
54854;BME280;40747;49.480;8.658;2023-04-25T03:05:28;99682.06;;;9.58;100.00
54854;BME280;40747;49.480;8.658;2023-04-25T03:07:53;99668.72;;;9.40;100.00
54854;BME280;40747;49.480;8.658;2023-04-25T03:10:18;99682.16;;;9.56;100.00
54854;BME280;40747;49.480;8.658;2023-04-25T03:12:43;99688.22;;;9.58;100.00
54854;BME280;40747;49.480;8.658;2023-04-25T03:15:09;99667.28;;;9.55;100.00
54854;BME280;40747;49.480;8.658;2023-04-25T03:17:34;99674.84;;;9.64;100.00
54854;BME280;40747;49.480;8.658;2023-04-25T03:20:00;99676.44;;;9.68;100.00
54854;BME280;40747;49.480;8.658;2023-04-25T03:22:26;99679.06;;;9.68;100.00
54854;BME280;40747;49.480;8.658;2023-04-25T03:24:51;99678.38;;;9.63;100.00
54854;BME280;40747;49.480;8.658;2023-04-25T03:27:17;99660.31;;;9.54;100.00
54854;BME280;40747;49.480;8.658;2023-04-25T03:29:42;99665.16;;;9.65;100.00
54854;BME280;40747;49.480;8.658;2023-04-25T03:32:08;99671.63;;;9.80;100.00
54854;BME280;40747;49.480;8.658;2023-04-25T03:34:33;99671.44;;;9.84;100.00
54854;BME280;40747;49.480;8.658;2023-04-25T03:36:58;99678.25;;;9.90;100.00
54854;BME280;40747;49.480;8.658;2023-04-25T03:39:25;99666.25;;;9.83;100.00
54854;BME280;40747;49.480;8.658;2023-04-25T03:41:50;99676.53;;;9.89;100.00
54854;BME280;40747;49.480;8.658;2023-04-25T03:44:15;99677.38;;;9.90;100.00
54854;BME280;40747;49.480;8.658;2023-04-25T03:46:40;99677.44;;;9.88;100.00
54854;BME280;40747;49.480;8.658;2023-04-25T03:49:06;99682.91;;;9.83;100.00
54854;BME280;40747;49.480;8.658;2023-04-25T03:51:31;99682.44;;;9.72;100.00
54854;BME280;40747;49.480;8.658;2023-04-25T03:53:58;99684.88;;;9.77;100.00
54854;BME280;40747;49.480;8.658;2023-04-25T03:56:23;99669.41;;;9.69;100.00
54854;BME280;40747;49.480;8.658;2023-04-25T03:58:48;99684.56;;;9.86;100.00
54854;BME280;40747;49.480;8.658;2023-04-25T04:01:14;99680.88;;;9.90;100.00
54854;BME280;40747;49.480;8.658;2023-04-25T04:03:39;99676.41;;;9.92;100.00
54854;BME280;40747;49.480;8.658;2023-04-25T04:06:06;99675.34;;;9.98;100.00
54854;BME280;40747;49.480;8.658;2023-04-25T04:08:32;99690.50;;;9.91;100.00
54854;BME280;40747;49.480;8.658;2023-04-25T04:10:58;99692.31;;;9.89;100.00
54854;BME280;40747;49.480;8.658;2023-04-25T04:13:26;99687.28;;;9.83;100.00
54854;BME280;40747;49.480;8.658;2023-04-25T04:15:51;99681.75;;;9.67;100.00
54854;BME280;40747;49.480;8.658;2023-04-25T04:18:17;99687.03;;;9.67;100.00
54854;BME280;40747;49.480;8.658;2023-04-25T04:20:42;99693.03;;;9.71;100.00
54854;BME280;40747;49.480;8.658;2023-04-25T04:23:07;99692.84;;;9.75;100.00
54854;BME280;40747;49.480;8.658;2023-04-25T04:25:33;99693.75;;;9.74;100.00
54854;BME280;40747;49.480;8.658;2023-04-25T04:27:59;99678.66;;;9.56;100.00
54854;BME280;40747;49.480;8.658;2023-04-25T04:30:26;99690.72;;;9.61;100.00
54854;BME280;40747;49.480;8.658;2023-04-25T04:32:55;99679.63;;;9.53;100.00
54854;BME280;40747;49.480;8.658;2023-04-25T04:35:21;99678.25;;;9.43;100.00
54854;BME280;40747;49.480;8.658;2023-04-25T04:37:47;99698.09;;;9.51;100.00
54854;BME280;40747;49.480;8.658;2023-04-25T04:40:13;99705.06;;;9.52;100.00
54854;BME280;40747;49.480;8.658;2023-04-25T04:42:43;99703.19;;;9.56;100.00
54854;BME280;40747;49.480;8.658;2023-04-25T04:45:10;99709.81;;;9.66;100.00
54854;BME280;40747;49.480;8.658;2023-04-25T04:47:36;99705.66;;;9.61;100.00
54854;BME280;40747;49.480;8.658;2023-04-25T04:50:03;99709.25;;;9.58;100.00
54854;BME280;40747;49.480;8.658;2023-04-25T04:52:29;99707.25;;;9.65;100.00
54854;BME280;40747;49.480;8.658;2023-04-25T04:54:54;99717.47;;;9.73;100.00
54854;BME280;40747;49.480;8.658;2023-04-25T04:57:20;99708.69;;;9.74;100.00
54854;BME280;40747;49.480;8.658;2023-04-25T04:59:45;99723.38;;;9.79;100.00
54854;BME280;40747;49.480;8.658;2023-04-25T05:02:11;99719.13;;;9.75;100.00
54854;BME280;40747;49.480;8.658;2023-04-25T05:04:36;99724.59;;;9.71;100.00
54854;BME280;40747;49.480;8.658;2023-04-25T05:07:01;99713.69;;;9.56;100.00
54854;BME280;40747;49.480;8.658;2023-04-25T05:09:27;99725.66;;;9.65;100.00
54854;BME280;40747;49.480;8.658;2023-04-25T05:11:52;99730.63;;;9.73;100.00
54854;BME280;40747;49.480;8.658;2023-04-25T05:14:17;99728.63;;;9.79;100.00
54854;BME280;40747;49.480;8.658;2023-04-25T05:16:43;99736.06;;;9.92;100.00
54854;BME280;40747;49.480;8.658;2023-04-25T05:19:09;99734.75;;;9.80;100.00
54854;BME280;40747;49.480;8.658;2023-04-25T05:21:34;99738.44;;;9.76;100.00
54854;BME280;40747;49.480;8.658;2023-04-25T05:24:00;99728.00;;;9.73;100.00
54854;BME280;40747;49.480;8.658;2023-04-25T05:26:25;99718.34;;;9.73;100.00
54854;BME280;40747;49.480;8.658;2023-04-25T05:28:50;99737.56;;;9.75;100.00
54854;BME280;40747;49.480;8.658;2023-04-25T05:31:16;99742.59;;;9.81;100.00
54854;BME280;40747;49.480;8.658;2023-04-25T05:33:41;99734.53;;;9.86;100.00
54854;BME280;40747;49.480;8.658;2023-04-25T05:36:07;99728.75;;;9.76;100.00
54854;BME280;40747;49.480;8.658;2023-04-25T05:38:32;99747.91;;;9.80;100.00
54854;BME280;40747;49.480;8.658;2023-04-25T05:40:58;99749.56;;;9.82;100.00
54854;BME280;40747;49.480;8.658;2023-04-25T05:43:23;99749.44;;;9.86;100.00
54854;BME280;40747;49.480;8.658;2023-04-25T05:45:48;99748.38;;;9.91;100.00
54854;BME280;40747;49.480;8.658;2023-04-25T05:48:14;99746.31;;;9.99;100.00
54854;BME280;40747;49.480;8.658;2023-04-25T05:50:40;99743.66;;;9.99;100.00
54854;BME280;40747;49.480;8.658;2023-04-25T05:53:05;99745.63;;;9.94;100.00
54854;BME280;40747;49.480;8.658;2023-04-25T05:55:31;99741.09;;;9.98;100.00
54854;BME280;40747;49.480;8.658;2023-04-25T05:57:56;99744.34;;;10.05;100.00
54854;BME280;40747;49.480;8.658;2023-04-25T06:00:21;99740.34;;;9.94;100.00
54854;BME280;40747;49.480;8.658;2023-04-25T06:02:48;99731.78;;;9.89;100.00
54854;BME280;40747;49.480;8.658;2023-04-25T06:05:13;99752.38;;;10.02;100.00
54854;BME280;40747;49.480;8.658;2023-04-25T06:07:38;99754.88;;;10.05;100.00
54854;BME280;40747;49.480;8.658;2023-04-25T06:10:04;99753.91;;;10.07;100.00
54854;BME280;40747;49.480;8.658;2023-04-25T06:12:32;99756.81;;;9.99;100.00
54854;BME280;40747;49.480;8.658;2023-04-25T06:14:58;99761.16;;;9.77;100.00
54854;BME280;40747;49.480;8.658;2023-04-25T06:17:23;99762.59;;;9.62;100.00
54854;BME280;40747;49.480;8.658;2023-04-25T06:19:48;99753.75;;;9.63;100.00
54854;BME280;40747;49.480;8.658;2023-04-25T06:22:14;99744.94;;;9.40;100.00
54854;BME280;40747;49.480;8.658;2023-04-25T06:24:39;99765.78;;;9.45;100.00
54854;BME280;40747;49.480;8.658;2023-04-25T06:27:04;99751.94;;;9.40;100.00
54854;BME280;40747;49.480;8.658;2023-04-25T06:29:30;99765.53;;;9.27;100.00
54854;BME280;40747;49.480;8.658;2023-04-25T06:31:55;99760.31;;;9.26;100.00
54854;BME280;40747;49.480;8.658;2023-04-25T06:34:20;99764.50;;;9.31;100.00
54854;BME280;40747;49.480;8.658;2023-04-25T06:36:46;99753.13;;;9.06;100.00
54854;BME280;40747;49.480;8.658;2023-04-25T06:39:11;99763.31;;;8.88;100.00
54854;BME280;40747;49.480;8.658;2023-04-25T06:41:37;99772.16;;;8.85;100.00
54854;BME280;40747;49.480;8.658;2023-04-25T06:44:02;99771.69;;;8.73;100.00
54854;BME280;40747;49.480;8.658;2023-04-25T06:46:27;99770.84;;;8.72;100.00
54854;BME280;40747;49.480;8.658;2023-04-25T06:48:52;99778.94;;;8.64;100.00
54854;BME280;40747;49.480;8.658;2023-04-25T06:51:18;99777.72;;;8.48;100.00
54854;BME280;40747;49.480;8.658;2023-04-25T06:53:43;99782.72;;;8.26;100.00
54854;BME280;40747;49.480;8.658;2023-04-25T06:56:08;99778.41;;;8.23;100.00
54854;BME280;40747;49.480;8.658;2023-04-25T06:58:34;99782.53;;;8.32;100.00
54854;BME280;40747;49.480;8.658;2023-04-25T07:00:59;99750.47;;;7.92;99.03
54854;BME280;40747;49.480;8.658;2023-04-25T07:03:24;99786.69;;;8.11;98.33
54854;BME280;40747;49.480;8.658;2023-04-25T07:05:50;99793.50;;;8.16;98.79
54854;BME280;40747;49.480;8.658;2023-04-25T07:08:16;99788.13;;;8.19;98.05
54854;BME280;40747;49.480;8.658;2023-04-25T07:10:41;99788.84;;;8.26;97.17
54854;BME280;40747;49.480;8.658;2023-04-25T07:13:06;99795.72;;;8.30;97.74
54854;BME280;40747;49.480;8.658;2023-04-25T07:15:32;99794.72;;;8.34;97.55
54854;BME280;40747;49.480;8.658;2023-04-25T07:17:57;99792.97;;;8.33;97.78
54854;BME280;40747;49.480;8.658;2023-04-25T07:20:22;99792.59;;;8.17;97.99
54854;BME280;40747;49.480;8.658;2023-04-25T07:22:47;99793.69;;;8.39;100.00
54854;BME280;40747;49.480;8.658;2023-04-25T07:25:13;99788.00;;;8.54;98.20
54854;BME280;40747;49.480;8.658;2023-04-25T07:27:38;99784.97;;;8.68;97.12
54854;BME280;40747;49.480;8.658;2023-04-25T07:30:04;99788.06;;;8.52;96.12
54854;BME280;40747;49.480;8.658;2023-04-25T07:32:30;99798.28;;;8.62;96.56
54854;BME280;40747;49.480;8.658;2023-04-25T07:34:55;99799.50;;;8.80;97.59
54854;BME280;40747;49.480;8.658;2023-04-25T07:37:21;99801.41;;;8.75;98.55
54854;BME280;40747;49.480;8.658;2023-04-25T07:39:46;99812.75;;;8.75;98.17
54854;BME280;40747;49.480;8.658;2023-04-25T07:42:12;99796.41;;;8.65;97.43
54854;BME280;40747;49.480;8.658;2023-04-25T07:44:38;99807.44;;;8.48;94.76
54854;BME280;40747;49.480;8.658;2023-04-25T07:47:08;99812.41;;;8.58;94.16
54854;BME280;40747;49.480;8.658;2023-04-25T07:49:35;99822.44;;;8.43;93.76
54854;BME280;40747;49.480;8.658;2023-04-25T07:52:01;99825.91;;;8.44;94.78
54854;BME280;40747;49.480;8.658;2023-04-25T07:54:27;99826.50;;;8.55;96.08
54854;BME280;40747;49.480;8.658;2023-04-25T07:56:52;99837.66;;;8.62;95.89
54854;BME280;40747;49.480;8.658;2023-04-25T07:59:18;99832.88;;;8.46;95.11
54854;BME280;40747;49.480;8.658;2023-04-25T08:01:43;99833.03;;;8.40;95.09
54854;BME280;40747;49.480;8.658;2023-04-25T08:04:09;99838.19;;;8.43;94.03
54854;BME280;40747;49.480;8.658;2023-04-25T08:06:34;99840.03;;;8.40;93.10
54854;BME280;40747;49.480;8.658;2023-04-25T08:09:00;99822.63;;;8.37;94.11
54854;BME280;40747;49.480;8.658;2023-04-25T08:11:25;99842.34;;;8.52;94.27
54854;BME280;40747;49.480;8.658;2023-04-25T08:13:50;99847.66;;;8.49;92.61
54854;BME280;40747;49.480;8.658;2023-04-25T08:16:16;99849.75;;;8.67;95.08
54854;BME280;40747;49.480;8.658;2023-04-25T08:18:41;99868.00;;;8.72;92.85
54854;BME280;40747;49.480;8.658;2023-04-25T08:21:07;99865.75;;;8.60;93.29
54854;BME280;40747;49.480;8.658;2023-04-25T08:23:34;99870.72;;;8.69;92.15
54854;BME280;40747;49.480;8.658;2023-04-25T08:25:59;99872.91;;;8.83;92.71
54854;BME280;40747;49.480;8.658;2023-04-25T08:28:24;99868.53;;;9.12;92.00
54854;BME280;40747;49.480;8.658;2023-04-25T08:30:50;99861.63;;;9.36;91.59
54854;BME280;40747;49.480;8.658;2023-04-25T08:33:15;99873.06;;;9.60;88.99
54854;BME280;40747;49.480;8.658;2023-04-25T08:35:40;99877.59;;;9.82;88.41
54854;BME280;40747;49.480;8.658;2023-04-25T08:38:06;99880.97;;;9.86;86.53
54854;BME280;40747;49.480;8.658;2023-04-25T08:40:35;99897.34;;;9.68;82.65
54854;BME280;40747;49.480;8.658;2023-04-25T08:43:03;99887.94;;;9.61;83.38
54854;BME280;40747;49.480;8.658;2023-04-25T08:45:32;99890.97;;;9.76;83.45
54854;BME280;40747;49.480;8.658;2023-04-25T08:47:58;99894.31;;;9.81;82.31
54854;BME280;40747;49.480;8.658;2023-04-25T08:50:23;99904.41;;;9.66;82.65
54854;BME280;40747;49.480;8.658;2023-04-25T08:52:53;99885.63;;;9.52;82.88
54854;BME280;40747;49.480;8.658;2023-04-25T08:55:19;99907.72;;;9.73;82.01
54854;BME280;40747;49.480;8.658;2023-04-25T08:57:46;99909.00;;;9.87;82.38
54854;BME280;40747;49.480;8.658;2023-04-25T09:00:12;99915.13;;;10.12;83.66
54854;BME280;40747;49.480;8.658;2023-04-25T09:02:42;99914.63;;;10.26;81.28
54854;BME280;40747;49.480;8.658;2023-04-25T09:05:08;99911.94;;;10.28;79.52
54854;BME280;40747;49.480;8.658;2023-04-25T09:07:35;99921.63;;;10.27;80.45
54854;BME280;40747;49.480;8.658;2023-04-25T09:10:00;99919.31;;;10.43;79.48
54854;BME280;40747;49.480;8.658;2023-04-25T09:12:29;99920.44;;;10.61;76.24
54854;BME280;40747;49.480;8.658;2023-04-25T09:15:10;99927.66;;;11.02;76.16
54854;BME280;40747;49.480;8.658;2023-04-25T09:17:35;99931.47;;;11.17;77.56
54854;BME280;40747;49.480;8.658;2023-04-25T09:20:13;99932.44;;;11.59;76.14
54854;BME280;40747;49.480;8.658;2023-04-25T09:22:38;99929.03;;;12.00;77.29
54854;BME280;40747;49.480;8.658;2023-04-25T09:25:11;99927.03;;;12.25;73.92
54854;BME280;40747;49.480;8.658;2023-04-25T09:27:49;99929.91;;;12.40;72.29
54854;BME280;40747;49.480;8.658;2023-04-25T09:30:15;99935.22;;;11.76;71.87
54854;BME280;40747;49.480;8.658;2023-04-25T09:32:42;99932.28;;;11.84;71.18
54854;BME280;40747;49.480;8.658;2023-04-25T09:35:08;99949.63;;;11.90;72.53
54854;BME280;40747;49.480;8.658;2023-04-25T09:37:33;99952.91;;;11.74;70.00
54854;BME280;40747;49.480;8.658;2023-04-25T09:40:04;99957.22;;;11.77;70.86
54854;BME280;40747;49.480;8.658;2023-04-25T09:42:31;99957.78;;;11.41;71.67
54854;BME280;40747;49.480;8.658;2023-04-25T09:44:58;99959.03;;;11.75;69.95
54854;BME280;40747;49.480;8.658;2023-04-25T09:47:26;99962.50;;;11.77;71.42
54854;BME280;40747;49.480;8.658;2023-04-25T09:49:53;99962.50;;;11.77;73.08
54854;BME280;40747;49.480;8.658;2023-04-25T09:52:20;99975.28;;;12.08;72.58
54854;BME280;40747;49.480;8.658;2023-04-25T09:54:47;99967.25;;;11.89;70.79
54854;BME280;40747;49.480;8.658;2023-04-25T09:57:15;99979.38;;;11.73;70.66
54854;BME280;40747;49.480;8.658;2023-04-25T09:59:46;99975.06;;;11.48;69.24
54854;BME280;40747;49.480;8.658;2023-04-25T10:02:13;99979.00;;;11.15;71.31
54854;BME280;40747;49.480;8.658;2023-04-25T10:04:39;99974.91;;;11.30;72.57
54854;BME280;40747;49.480;8.658;2023-04-25T10:07:07;99987.78;;;11.38;71.34
54854;BME280;40747;49.480;8.658;2023-04-25T10:09:33;99977.56;;;11.95;70.56
54854;BME280;40747;49.480;8.658;2023-04-25T10:11:59;99966.16;;;12.36;70.89
54854;BME280;40747;49.480;8.658;2023-04-25T10:14:26;99986.38;;;12.17;69.26
54854;BME280;40747;49.480;8.658;2023-04-25T10:16:52;100000.50;;;12.16;69.72
54854;BME280;40747;49.480;8.658;2023-04-25T10:19:21;99983.81;;;12.15;69.31
54854;BME280;40747;49.480;8.658;2023-04-25T10:21:52;100000.94;;;12.67;69.87
54854;BME280;40747;49.480;8.658;2023-04-25T10:24:20;99991.50;;;13.01;68.90
54854;BME280;40747;49.480;8.658;2023-04-25T10:26:46;99989.53;;;13.62;69.50
54854;BME280;40747;49.480;8.658;2023-04-25T10:29:12;99986.75;;;13.65;65.78
54854;BME280;40747;49.480;8.658;2023-04-25T10:31:45;99987.97;;;13.19;65.43
54854;BME280;40747;49.480;8.658;2023-04-25T10:34:11;99989.03;;;13.90;67.96
54854;BME280;40747;49.480;8.658;2023-04-25T10:36:36;99976.50;;;14.11;66.58
54854;BME280;40747;49.480;8.658;2023-04-25T10:39:06;99981.94;;;13.73;64.64
54854;BME280;40747;49.480;8.658;2023-04-25T10:41:46;99978.00;;;13.99;66.01
54854;BME280;40747;49.480;8.658;2023-04-25T10:44:13;99985.31;;;13.57;64.82
54854;BME280;40747;49.480;8.658;2023-04-25T10:46:39;99980.59;;;13.26;66.25
54854;BME280;40747;49.480;8.658;2023-04-25T10:49:04;99984.41;;;12.82;68.15
54854;BME280;40747;49.480;8.658;2023-04-25T10:51:34;99984.03;;;12.71;70.59
54854;BME280;40747;49.480;8.658;2023-04-25T10:56:33;100003.41;;;12.09;71.49
54854;BME280;40747;49.480;8.658;2023-04-25T11:01:43;99996.00;;;12.59;69.98
54854;BME280;40747;49.480;8.658;2023-04-25T11:04:25;99989.34;;;12.50;67.80
54854;BME280;40747;49.480;8.658;2023-04-25T11:07:10;100000.16;;;12.23;68.70
54854;BME280;40747;49.480;8.658;2023-04-25T11:09:39;99995.41;;;12.52;69.20
54854;BME280;40747;49.480;8.658;2023-04-25T11:12:07;99993.75;;;12.70;69.31
54854;BME280;40747;49.480;8.658;2023-04-25T11:14:33;99989.13;;;12.55;66.04
54854;BME280;40747;49.480;8.658;2023-04-25T11:16:59;100000.31;;;12.41;66.91
54854;BME280;40747;49.480;8.658;2023-04-25T11:19:27;100006.00;;;12.32;66.45
54854;BME280;40747;49.480;8.658;2023-04-25T11:21:57;99974.81;;;11.99;66.91
54854;BME280;40747;49.480;8.658;2023-04-25T11:24:34;100002.03;;;12.21;67.39
54854;BME280;40747;49.480;8.658;2023-04-25T11:27:03;99969.69;;;11.94;67.82
54854;BME280;40747;49.480;8.658;2023-04-25T11:29:30;100011.06;;;11.93;66.98
54854;BME280;40747;49.480;8.658;2023-04-25T11:31:56;100026.59;;;11.57;67.81
54854;BME280;40747;49.480;8.658;2023-04-25T11:34:27;100019.66;;;11.32;68.94
54854;BME280;40747;49.480;8.658;2023-04-25T11:36:57;100020.19;;;11.18;69.46
54854;BME280;40747;49.480;8.658;2023-04-25T11:39:26;100018.06;;;11.28;71.65
54854;BME280;40747;49.480;8.658;2023-04-25T11:41:53;100026.38;;;11.41;72.42
54854;BME280;40747;49.480;8.658;2023-04-25T11:44:19;100024.28;;;11.49;70.67
54854;BME280;40747;49.480;8.658;2023-04-25T11:46:45;100030.34;;;11.51;70.72
54854;BME280;40747;49.480;8.658;2023-04-25T11:49:11;100021.19;;;11.38;70.13
54854;BME280;40747;49.480;8.658;2023-04-25T11:51:47;100033.72;;;11.77;70.56
54854;BME280;40747;49.480;8.658;2023-04-25T11:54:13;100039.53;;;11.85;70.00
54854;BME280;40747;49.480;8.658;2023-04-25T11:56:43;100043.03;;;11.63;69.79
54854;BME280;40747;49.480;8.658;2023-04-25T11:59:08;100047.63;;;11.58;70.80
54854;BME280;40747;49.480;8.658;2023-04-25T12:01:36;100046.03;;;11.76;70.79
54854;BME280;40747;49.480;8.658;2023-04-25T12:04:21;100044.97;;;12.04;69.66
54854;BME280;40747;49.480;8.658;2023-04-25T12:06:48;100046.44;;;11.89;67.95
54854;BME280;40747;49.480;8.658;2023-04-25T12:09:18;100048.03;;;11.93;69.17
54854;BME280;40747;49.480;8.658;2023-04-25T12:11:47;100049.09;;;11.89;67.36
54854;BME280;40747;49.480;8.658;2023-04-25T12:14:27;100049.22;;;11.40;69.53
54854;BME280;40747;49.480;8.658;2023-04-25T12:16:55;100048.25;;;11.43;69.42
54854;BME280;40747;49.480;8.658;2023-04-25T12:19:21;100052.84;;;11.38;69.66
54854;BME280;40747;49.480;8.658;2023-04-25T12:21:47;100053.22;;;11.51;69.43
54854;BME280;40747;49.480;8.658;2023-04-25T12:24:18;100054.66;;;11.59;69.72
54854;BME280;40747;49.480;8.658;2023-04-25T12:27:01;100056.72;;;11.51;70.25
54854;BME280;40747;49.480;8.658;2023-04-25T12:29:28;100044.00;;;11.39;70.48
54854;BME280;40747;49.480;8.658;2023-04-25T12:31:55;100055.53;;;11.60;69.19
54854;BME280;40747;49.480;8.658;2023-04-25T12:34:21;100066.00;;;11.61;70.41
54854;BME280;40747;49.480;8.658;2023-04-25T12:36:47;100063.84;;;11.49;69.86
54854;BME280;40747;49.480;8.658;2023-04-25T12:39:22;100058.75;;;11.89;70.31
54854;BME280;40747;49.480;8.658;2023-04-25T12:41:49;100065.41;;;11.99;70.04
54854;BME280;40747;49.480;8.658;2023-04-25T12:44:14;100058.75;;;11.89;69.26
54854;BME280;40747;49.480;8.658;2023-04-25T12:46:40;100054.34;;;11.89;69.44
54854;BME280;40747;49.480;8.658;2023-04-25T12:49:06;100058.47;;;11.96;68.14
54854;BME280;40747;49.480;8.658;2023-04-25T12:51:34;100060.56;;;12.10;67.19
54854;BME280;40747;49.480;8.658;2023-04-25T12:54:00;100057.44;;;12.01;67.78
54854;BME280;40747;49.480;8.658;2023-04-25T12:56:26;100073.84;;;11.85;67.53
54854;BME280;40747;49.480;8.658;2023-04-25T12:58:52;100068.94;;;11.76;68.32
54854;BME280;40747;49.480;8.658;2023-04-25T13:01:18;100065.59;;;11.94;68.17